Time;durP1;ratioP1;P1;durP2;ratioP2;P2;SDS_P1;SDS_P2;PMS_P1;PMS_P2;Temp;Humidity;BMP_temperature;BMP_pressure;BME280_temperature;BME280_humidity;BME280_pressure;Samples;Min_cycle;Max_cycle;Signal;HPM_P1;HPM_P2
2023/07/13 00:01:49;;;;;;;5.50;2.00;;;;;;;17.95;72.55;100626.23;107186;1256;70171;-73
2023/07/13 00:04:17;;;;;;;5.20;2.00;;;;;;;17.92;72.82;100628.75;107186;1259;71452;-74
2023/07/13 00:06:45;;;;;;;4.80;1.90;;;;;;;17.89;73.11;100636.34;107336;1256;62133;-73
2023/07/13 00:09:13;;;;;;;4.40;1.90;;;;;;;17.84;73.37;100631.14;107362;1255;61707;-74
2023/07/13 00:11:41;;;;;;;5.20;2.10;;;;;;;17.81;73.59;100631.77;107216;1255;74751;-74
2023/07/13 00:14:08;;;;;;;3.80;1.70;;;;;;;17.78;73.78;100634.29;107148;1256;70767;-73
2023/07/13 00:16:37;;;;;;;4.50;1.90;;;;;;;17.75;73.95;100637.05;107335;1256;71259;-74
2023/07/13 00:19:05;;;;;;;4.40;1.70;;;;;;;17.73;74.11;100636.48;107360;1256;62312;-73
2023/07/13 00:21:32;;;;;;;4.70;1.90;;;;;;;17.70;74.33;100641.35;107531;1256;61191;-73
2023/07/13 00:24:00;;;;;;;6.00;2.00;;;;;;;17.67;74.69;100635.02;107585;1256;73455;-73
2023/07/13 00:26:27;;;;;;;4.20;2.00;;;;;;;17.65;74.96;100637.90;107335;1257;70541;-73
2023/07/13 00:28:54;;;;;;;5.10;1.80;;;;;;;17.63;75.19;100638.16;107460;1256;72704;-72
2023/07/13 00:31:21;;;;;;;5.00;2.00;;;;;;;17.63;75.07;100641.88;107437;1256;61263;-74
2023/07/13 00:33:47;;;;;;;6.00;2.40;;;;;;;17.63;75.37;100642.86;107403;1255;59460;-74
2023/07/13 00:36:15;;;;;;;4.20;2.00;;;;;;;17.64;75.99;100641.77;107215;1261;73494;-73
2023/07/13 00:38:42;;;;;;;4.90;2.00;;;;;;;17.64;75.88;100644.28;107441;1256;71393;-73
2023/07/13 00:41:09;;;;;;;4.00;1.90;;;;;;;17.63;75.98;100642.20;107660;1256;70724;-73
2023/07/13 00:43:37;;;;;;;4.30;2.00;;;;;;;17.63;75.94;100642.03;107427;1256;62703;-73
2023/07/13 00:46:31;;;;;;;4.00;2.30;;;;;;;17.63;76.18;100636.77;107380;1255;61137;-74
2023/07/13 00:49:02;;;;;;;3.30;1.80;;;;;;;17.63;76.32;100638.79;107571;1256;73927;-74
2023/07/13 00:51:49;;;;;;;4.00;2.00;;;;;;;17.64;76.33;100638.05;107408;1256;70194;-73
2023/07/13 00:54:22;;;;;;;4.70;1.90;;;;;;;17.63;76.33;100632.06;107385;1256;72173;-74
2023/07/13 00:56:52;;;;;;;5.20;2.10;;;;;;;17.62;76.27;100631.33;107705;1256;61649;-74
2023/07/13 00:59:21;;;;;;;4.20;1.90;;;;;;;17.60;76.04;100627.19;107464;1256;61166;-74
2023/07/13 01:01:48;;;;;;;4.80;2.10;;;;;;;17.57;76.13;100628.50;107455;1257;75236;-74
2023/07/13 01:04:16;;;;;;;4.10;1.70;;;;;;;17.53;76.00;100622.76;107558;1256;71702;-74
2023/07/13 01:06:45;;;;;;;4.40;2.10;;;;;;;17.49;76.15;100627.54;107614;1259;72730;-74
2023/07/13 01:09:13;;;;;;;4.00;1.90;;;;;;;17.44;76.42;100627.71;107802;1255;61284;-74
2023/07/13 01:11:41;;;;;;;4.50;2.00;;;;;;;17.40;76.63;100622.84;108285;1256;59363;-74
2023/07/13 01:14:11;;;;;;;5.20;1.80;;;;;;;17.35;76.56;100617.45;107862;1256;74729;-75
2023/07/13 01:16:40;;;;;;;5.20;2.00;;;;;;;17.31;76.69;100618.80;107460;1256;70614;-73
2023/07/13 01:19:21;;;;;;;3.40;1.90;;;;;;;17.25;76.93;100623.69;108196;1255;71448;-75
2023/07/13 01:21:51;;;;;;;4.90;2.20;;;;;;;17.20;77.23;100620.35;107465;1256;62461;-75
2023/07/13 01:24:18;;;;;;;4.00;2.10;;;;;;;17.15;77.86;100625.55;107690;1256;61871;-74
2023/07/13 01:26:44;;;;;;;4.50;2.20;;;;;;;17.09;78.12;100625.39;107372;1257;72947;-73
2023/07/13 01:29:12;;;;;;;6.50;2.30;;;;;;;17.04;78.38;100621.48;107367;1257;71556;-72
2023/07/13 01:31:38;;;;;;;6.30;2.30;;;;;;;16.99;78.57;100624.76;107697;1256;71407;-74
2023/07/13 01:34:06;;;;;;;5.70;2.30;;;;;;;16.95;78.77;100623.79;107500;1256;60601;-74
2023/07/13 01:36:33;;;;;;;4.00;2.20;;;;;;;16.89;78.99;100623.14;107521;1255;61296;-74
2023/07/13 01:39:00;;;;;;;5.70;2.30;;;;;;;16.84;79.40;100622.60;107030;1256;606256;-73
2023/07/13 01:41:27;;;;;;;4.90;2.40;;;;;;;16.79;79.59;100624.17;107485;1259;69956;-73
2023/07/13 01:43:53;;;;;;;6.00;2.50;;;;;;;16.73;80.19;100635.05;107378;1256;72747;-74
2023/07/13 01:46:20;;;;;;;4.10;2.10;;;;;;;16.65;80.62;100638.77;107474;1261;61356;-75
2023/07/13 01:48:50;;;;;;;6.60;2.70;;;;;;;16.59;80.91;100640.17;107572;1257;60030;-73
2023/07/13 01:51:18;;;;;;;4.50;2.40;;;;;;;16.53;81.27;100640.13;107364;1256;74712;-73
2023/07/13 01:53:45;;;;;;;5.50;2.50;;;;;;;16.48;81.49;100639.67;107707;1256;71138;-74
2023/07/13 01:56:12;;;;;;;6.40;2.80;;;;;;;16.42;82.06;100639.38;107528;1256;72795;-74
2023/07/13 01:58:39;;;;;;;3.80;2.40;;;;;;;16.36;82.92;100639.49;107233;1256;62083;-74
2023/07/13 02:01:06;;;;;;;4.50;2.70;;;;;;;16.31;83.28;100639.48;107998;1256;61367;-74
2023/07/13 02:03:33;;;;;;;6.70;2.80;;;;;;;16.27;83.27;100639.66;107512;1256;73467;-74
2023/07/13 02:06:00;;;;;;;4.70;2.50;;;;;;;16.23;83.39;100643.21;107842;1256;69946;-74
2023/07/13 02:08:31;;;;;;;5.30;2.70;;;;;;;16.20;83.78;100645.86;107734;1256;71555;-74
2023/07/13 02:10:58;;;;;;;6.20;2.80;;;;;;;16.17;83.80;100647.34;107389;1256;61756;-74
2023/07/13 02:13:25;;;;;;;6.10;2.80;;;;;;;16.15;84.17;100651.91;107579;1256;59342;-74
2023/07/13 02:15:54;;;;;;;5.50;2.90;;;;;;;16.12;84.35;100655.91;107553;1256;75094;-76
2023/07/13 02:18:21;;;;;;;6.20;2.70;;;;;;;16.10;84.43;100658.44;107673;1256;70173;-74
2023/07/13 02:20:48;;;;;;;5.20;2.40;;;;;;;16.09;84.49;100655.19;107091;1256;72680;-74
2023/07/13 02:23:15;;;;;;;6.10;2.60;;;;;;;16.09;84.60;100658.27;107214;1256;62192;-74
2023/07/13 02:25:41;;;;;;;4.10;2.50;;;;;;;16.08;84.60;100659.05;107815;1256;59672;-74
2023/07/13 02:28:08;;;;;;;6.10;2.60;;;;;;;16.08;84.61;100660.48;107616;1256;75057;-74
2023/07/13 02:30:35;;;;;;;4.00;2.50;;;;;;;16.08;84.45;100657.81;107533;1256;70494;-74
2023/07/13 02:33:02;;;;;;;6.60;2.40;;;;;;;16.07;84.18;100658.45;107085;1256;71447;-74
2023/07/13 02:35:29;;;;;;;5.70;2.30;;;;;;;16.06;84.12;100660.91;107360;1256;61193;-74
2023/07/13 02:37:56;;;;;;;5.50;2.60;;;;;;;16.08;83.94;100660.54;107289;1257;62118;-74
2023/07/13 02:40:22;;;;;;;5.10;2.10;;;;;;;16.10;83.74;100665.10;107501;1256;74389;-74
2023/07/13 02:42:49;;;;;;;8.40;2.80;;;;;;;16.10;83.47;100657.58;107257;1259;71299;-74
2023/07/13 02:45:16;;;;;;;6.20;2.90;;;;;;;16.09;83.25;100659.30;107335;1256;72149;-74
2023/07/13 02:47:43;;;;;;;4.90;2.60;;;;;;;16.08;83.28;100656.55;107309;1259;61625;-74
2023/07/13 02:50:10;;;;;;;6.90;2.60;;;;;;;16.07;83.32;100660.99;107665;1256;60062;-75
2023/07/13 02:52:37;;;;;;;4.80;2.20;;;;;;;16.05;83.19;100657.05;107588;1256;74665;-74
2023/07/13 02:55:04;;;;;;;5.00;2.30;;;;;;;16.02;83.39;100659.34;107258;1256;70476;-73
2023/07/13 02:57:32;;;;;;;3.60;2.20;;;;;;;16.01;83.40;100660.04;107487;1256;71565;-73
2023/07/13 03:00:00;;;;;;;6.40;2.50;;;;;;;16.00;83.41;100662.92;107277;1260;61418;-74
2023/07/13 03:02:28;;;;;;;5.20;2.10;;;;;;;15.98;83.44;100664.98;107947;1256;61373;-74
2023/07/13 03:04:56;;;;;;;4.60;2.40;;;;;;;15.97;83.31;100668.36;107803;1256;73440;-73
2023/07/13 03:07:23;;;;;;;4.30;2.30;;;;;;;15.96;83.38;100668.44;107189;1257;71150;-73
2023/07/13 03:09:53;;;;;;;4.10;2.30;;;;;;;15.95;83.29;100669.30;107737;1255;72480;-74
2023/07/13 03:12:21;;;;;;;7.40;2.80;;;;;;;15.93;83.33;100668.04;107995;1256;60880;-74
2023/07/13 03:14:48;;;;;;;6.40;2.10;;;;;;;15.91;83.37;100667.88;107975;1255;61238;-74
2023/07/13 03:17:14;;;;;;;4.20;2.50;;;;;;;15.89;83.31;100668.05;107556;1256;73431;-72
2023/07/13 03:19:41;;;;;;;4.00;2.10;;;;;;;15.87;83.22;100663.38;107925;1256;69966;-74
2023/07/13 03:22:08;;;;;;;6.00;2.40;;;;;;;15.86;83.20;100664.29;107768;1262;71267;-73
2023/07/13 03:24:37;;;;;;;3.80;2.30;;;;;;;15.84;83.23;100662.19;107803;1255;61286;-73
2023/07/13 03:27:08;;;;;;;7.00;2.50;;;;;;;15.82;82.87;100655.12;107618;1257;61851;-72
2023/07/13 03:29:35;;;;;;;5.90;2.20;;;;;;;15.82;82.73;100655.27;107745;1256;73766;-72
2023/07/13 03:32:04;;;;;;;3.60;2.00;;;;;;;15.82;82.57;100656.23;107841;1256;69794;-73
2023/07/13 03:34:32;;;;;;;6.70;2.60;;;;;;;15.81;82.47;100658.48;107763;1255;72405;-73
2023/07/13 03:36:59;;;;;;;5.60;2.40;;;;;;;15.79;82.45;100660.31;107954;1256;62033;-73
2023/07/13 03:39:26;;;;;;;5.00;2.00;;;;;;;15.77;82.25;100669.81;107840;1256;61238;-73
2023/07/13 03:41:53;;;;;;;5.70;2.10;;;;;;;15.75;82.45;100667.43;107795;1256;72895;-72
2023/07/13 03:44:22;;;;;;;4.80;2.10;;;;;;;15.73;82.40;100671.98;107724;1256;71269;-74
2023/07/13 03:46:50;;;;;;;6.20;2.20;;;;;;;15.71;82.59;100670.71;107582;1260;71805;-73
2023/07/13 03:49:17;;;;;;;7.00;2.20;;;;;;;15.72;82.33;100668.15;108534;1257;62068;-72
2023/07/13 03:51:44;;;;;;;5.50;2.20;;;;;;;15.74;82.33;100664.70;108873;1256;59472;-72
2023/07/13 03:54:10;;;;;;;4.20;2.20;;;;;;;15.76;82.26;100663.27;108780;1256;73519;-73
2023/07/13 03:56:37;;;;;;;4.90;2.10;;;;;;;15.79;82.10;100669.48;108827;1255;70635;-73
2023/07/13 03:59:04;;;;;;;3.60;1.90;;;;;;;15.82;82.00;100670.80;108860;1255;71537;-73
2023/07/13 04:01:31;;;;;;;6.40;2.10;;;;;;;15.87;81.87;100674.13;108689;1256;60684;-73
2023/07/13 04:03:58;;;;;;;5.10;2.00;;;;;;;15.92;81.72;100674.60;108564;1256;60988;-74
2023/07/13 04:06:30;;;;;;;4.60;2.30;;;;;;;15.97;81.56;100675.23;108213;1256;74415;-73
2023/07/13 04:09:00;;;;;;;6.50;2.20;;;;;;;16.03;81.34;100672.63;107912;1256;69925;-72
2023/07/13 04:11:29;;;;;;;7.50;2.40;;;;;;;16.09;81.18;100673.39;107496;1256;72396;-72
2023/07/13 04:13:56;;;;;;;4.20;1.90;;;;;;;16.15;80.94;100675.59;107599;1258;60789;-73
2023/07/13 04:16:24;;;;;;;7.40;2.10;;;;;;;16.22;80.77;100680.33;108029;1255;61618;-73
2023/07/13 04:18:54;;;;;;;5.30;2.00;;;;;;;16.29;80.45;100683.46;107892;1256;73506;-72
2023/07/13 04:21:22;;;;;;;4.20;1.90;;;;;;;16.39;80.23;100682.44;107530;1256;70033;-73
2023/07/13 04:23:48;;;;;;;6.70;2.00;;;;;;;16.51;79.65;100681.66;108811;1256;71768;-72
2023/07/13 04:26:15;;;;;;;5.30;1.80;;;;;;;16.65;79.37;100685.14;107777;1256;61944;-72
2023/07/13 04:28:42;;;;;;;5.50;1.90;;;;;;;16.79;78.91;100679.83;107951;1256;61270;-72
2023/07/13 04:31:08;;;;;;;5.60;2.30;;;;;;;16.90;78.20;100680.52;107988;1255;73500;-72
2023/07/13 04:33:35;;;;;;;4.10;2.00;;;;;;;17.01;77.91;100677.76;107708;1256;71157;-72
2023/07/13 04:36:04;;;;;;;5.00;1.60;;;;;;;17.09;77.21;100679.98;108141;1256;72860;-74
2023/07/13 04:38:32;;;;;;;4.60;1.80;;;;;;;17.14;76.66;100680.70;107687;1256;61690;-73
2023/07/13 04:41:05;;;;;;;6.70;1.90;;;;;;;17.18;76.55;100677.29;107600;1263;61361;-72
2023/07/13 04:43:32;;;;;;;5.50;1.70;;;;;;;17.19;76.12;100680.25;107603;1256;73535;-73
2023/07/13 04:46:12;;;;;;;5.60;1.60;;;;;;;17.18;76.11;100677.02;107994;1256;71762;-74
2023/07/13 04:48:40;;;;;;;5.20;1.90;;;;;;;17.17;76.19;100678.04;107901;1256;71641;-75
2023/07/13 04:51:07;;;;;;;7.50;1.80;;;;;;;17.17;76.20;100681.35;107898;1263;61385;-75
2023/07/13 04:53:34;;;;;;;4.70;1.60;;;;;;;17.19;76.14;100680.99;107687;1256;61689;-74
2023/07/13 04:56:02;;;;;;;5.50;1.60;;;;;;;17.20;76.00;100678.89;107767;1256;75965;-73
2023/07/13 04:58:29;;;;;;;4.80;1.60;;;;;;;17.21;75.78;100682.70;107772;1261;70646;-74
2023/07/13 05:01:01;;;;;;;4.10;1.50;;;;;;;17.24;75.47;100682.89;107832;1256;72574;-73
2023/07/13 05:03:28;;;;;;;5.80;1.40;;;;;;;17.27;75.18;100684.51;107919;1256;61921;-73
2023/07/13 05:06:05;;;;;;;7.10;1.80;;;;;;;17.33;74.95;100687.05;107784;1259;61206;-73
2023/07/13 05:08:31;;;;;;;6.50;1.60;;;;;;;17.40;74.60;100693.27;108145;1256;73402;-74
2023/07/13 05:11:03;;;;;;;5.20;1.60;;;;;;;17.48;74.34;100693.56;107884;1256;71234;-72
2023/07/13 05:13:30;;;;;;;5.90;1.60;;;;;;;17.56;73.90;100698.20;107590;1256;71549;-72
2023/07/13 05:15:59;;;;;;;4.10;1.50;;;;;;;17.64;73.57;100696.47;107494;1256;62107;-71
2023/07/13 05:18:26;;;;;;;6.10;1.70;;;;;;;17.72;73.07;100700.48;107690;1257;59674;-72
2023/07/13 05:21:06;;;;;;;5.40;1.60;;;;;;;17.79;72.54;100708.00;107331;1261;74764;-73
2023/07/13 05:23:34;;;;;;;4.80;1.50;;;;;;;17.88;71.83;100703.48;107695;1256;71216;-73
2023/07/13 05:26:02;;;;;;;4.80;1.50;;;;;;;17.96;71.53;100706.85;107329;1256;71473;-73
2023/07/13 05:28:32;;;;;;;5.70;1.70;;;;;;;18.04;71.01;100710.52;107813;1255;62036;-72
2023/07/13 05:30:59;;;;;;;6.70;1.70;;;;;;;18.11;70.51;100719.25;107571;1262;61365;-73
2023/07/13 05:33:27;;;;;;;5.50;1.60;;;;;;;18.16;70.46;100715.95;107567;1256;74728;-73
2023/07/13 05:35:54;;;;;;;6.20;1.50;;;;;;;18.23;69.99;100720.36;107317;1256;70372;-73
2023/07/13 05:38:21;;;;;;;5.10;1.50;;;;;;;18.29;69.53;100716.88;107894;1255;71119;-73
2023/07/13 05:40:48;;;;;;;5.10;1.40;;;;;;;18.34;69.21;100720.41;107455;1256;61433;-77
2023/07/13 05:43:15;;;;;;;7.30;1.70;;;;;;;18.39;68.89;100722.73;107811;1257;60122;-72
2023/07/13 05:45:42;;;;;;;5.60;1.40;;;;;;;18.44;68.81;100721.25;107778;1256;75444;-73
2023/07/13 05:48:08;;;;;;;6.90;1.90;;;;;;;18.47;68.46;100722.27;107818;1256;71284;-74
2023/07/13 05:50:36;;;;;;;5.80;1.30;;;;;;;18.50;68.42;100726.34;107696;1259;73236;-73
2023/07/13 05:53:03;;;;;;;5.00;1.50;;;;;;;18.52;67.93;100732.02;107726;1263;60493;-73
2023/07/13 05:55:29;;;;;;;5.20;1.50;;;;;;;18.52;67.95;100730.89;107802;1256;61767;-71
2023/07/13 05:57:57;;;;;;;7.00;1.60;;;;;;;18.55;67.64;100734.19;107390;1259;59297;-72
2023/07/13 06:00:24;;;;;;;6.40;1.60;;;;;;;18.61;67.79;100734.90;106957;1256;69675;-72
2023/07/13 06:02:51;;;;;;;5.30;1.80;;;;;;;18.68;67.26;100744.00;107428;1256;73681;-72
2023/07/13 06:05:19;;;;;;;7.50;3.10;;;;;;;18.69;66.75;100746.66;107171;1256;61196;-73
2023/07/13 06:07:46;;;;;;;7.10;1.80;;;;;;;18.64;66.47;100742.92;106946;1256;61352;-76
2023/07/13 06:10:13;;;;;;;4.60;1.60;;;;;;;18.60;66.62;100748.94;106452;1256;73561;-74
2023/07/13 06:12:39;;;;;;;4.30;1.50;;;;;;;18.58;67.11;100746.27;106710;1256;70586;-73
2023/07/13 06:15:07;;;;;;;5.10;1.70;;;;;;;18.62;67.39;100744.90;107190;1256;72181;-73
2023/07/13 06:17:34;;;;;;;6.70;3.00;;;;;;;18.69;67.43;100743.31;106966;1257;61254;-74
2023/07/13 06:20:01;;;;;;;8.30;2.90;;;;;;;18.73;66.92;100752.48;107360;1256;61092;-73
2023/07/13 06:22:28;;;;;;;5.40;1.70;;;;;;;18.78;66.33;100753.60;107275;1256;73504;-74
2023/07/13 06:24:55;;;;;;;6.20;1.60;;;;;;;18.81;66.19;100749.59;107136;1256;71051;-74
2023/07/13 06:27:22;;;;;;;4.90;2.10;;;;;;;18.90;66.21;100749.30;107316;1257;73104;-75
2023/07/13 06:29:48;;;;;;;7.20;2.20;;;;;;;19.02;66.00;100749.76;107150;1256;61148;-73
2023/07/13 06:32:15;;;;;;;6.70;1.70;;;;;;;19.14;65.24;100746.45;106759;1256;61405;-73
2023/07/13 06:34:42;;;;;;;7.40;2.50;;;;;;;19.33;65.31;100745.63;106861;1256;74139;-73
2023/07/13 06:37:10;;;;;;;7.30;1.90;;;;;;;19.53;64.83;100746.54;107158;1256;71410;-72
2023/07/13 06:39:36;;;;;;;5.50;1.90;;;;;;;19.71;64.24;100744.47;107114;1256;71769;-74
2023/07/13 06:42:04;;;;;;;7.50;2.40;;;;;;;19.85;63.73;100747.16;107317;1256;62070;-73
2023/07/13 06:44:31;;;;;;;13.90;7.30;;;;;;;19.96;62.70;100752.24;106899;1256;61267;-72
2023/07/13 06:46:57;;;;;;;5.50;2.50;;;;;;;20.03;62.22;100756.48;107278;1256;73804;-72
2023/07/13 06:49:24;;;;;;;5.60;2.00;;;;;;;20.08;61.91;100753.95;108033;1256;71936;-73
2023/07/13 06:51:50;;;;;;;8.40;3.90;;;;;;;20.20;62.02;100753.19;108796;1256;59451;-73
2023/07/13 06:54:17;;;;;;;7.30;2.20;;;;;;;20.26;61.28;100756.33;108357;1256;61243;-72
2023/07/13 06:56:44;;;;;;;6.50;2.00;;;;;;;20.35;61.42;100755.92;107182;1256;61774;-73
2023/07/13 06:59:11;;;;;;;8.40;2.90;;;;;;;20.43;61.44;100754.99;108244;1256;72933;-73
2023/07/13 07:01:38;;;;;;;5.60;2.20;;;;;;;20.46;61.14;100753.02;107562;1256;69507;-74
2023/07/13 07:04:08;;;;;;;5.60;2.20;;;;;;;20.51;61.38;100756.70;107013;1256;71501;-73
2023/07/13 07:06:35;;;;;;;5.60;2.00;;;;;;;20.55;60.86;100756.15;107170;1256;61147;-73
2023/07/13 07:09:02;;;;;;;7.70;3.00;;;;;;;20.50;59.58;100757.56;106856;1256;60348;-73
2023/07/13 07:11:29;;;;;;;6.50;1.80;;;;;;;20.39;59.69;100755.08;106800;1261;75052;-73
2023/07/13 07:13:55;;;;;;;8.00;3.90;;;;;;;20.34;60.45;100757.95;106922;1257;68933;-73
2023/07/13 07:16:24;;;;;;;7.90;2.70;;;;;;;20.30;60.93;100755.39;107042;1256;72721;-73
2023/07/13 07:18:51;;;;;;;7.20;2.40;;;;;;;20.29;60.42;100758.05;107036;1257;61170;-74
2023/07/13 07:21:18;;;;;;;5.20;1.80;;;;;;;20.35;60.88;100760.55;106954;1257;61341;-74
2023/07/13 07:23:44;;;;;;;9.90;4.90;;;;;;;20.41;60.43;100766.33;107156;1255;73474;-73
2023/07/13 07:26:11;;;;;;;8.60;4.50;;;;;;;20.38;60.00;100762.02;106881;1256;72789;-74
2023/07/13 07:28:38;;;;;;;5.80;1.90;;;;;;;20.34;60.13;100771.84;106914;1256;72771;-74
2023/07/13 07:31:11;;;;;;;5.50;1.50;;;;;;;20.25;59.14;100776.73;106945;1262;59355;-72
2023/07/13 07:33:41;;;;;;;12.60;8.20;;;;;;;20.17;58.10;100776.29;107573;1256;61256;-74
2023/07/13 07:36:08;;;;;;;4.00;1.40;;;;;;;20.08;57.97;100772.92;107031;1257;73631;-71
2023/07/13 07:38:37;;;;;;;4.30;1.80;;;;;;;20.07;58.33;100775.52;106890;1257;71102;-71
2023/07/13 07:41:05;;;;;;;7.90;3.20;;;;;;;20.03;57.66;100773.35;106956;1257;72709;-72
2023/07/13 07:43:35;;;;;;;5.30;1.70;;;;;;;20.09;58.23;100771.38;106892;1257;61167;-71
2023/07/13 07:46:03;;;;;;;5.20;1.40;;;;;;;20.14;58.31;100772.89;106875;1257;60333;-72
2023/07/13 07:48:31;;;;;;;5.80;1.40;;;;;;;20.19;58.38;100768.14;106731;1256;73177;-73
2023/07/13 07:50:58;;;;;;;7.80;2.00;;;;;;;20.29;58.55;100771.11;107451;1257;69949;-74
2023/07/13 07:53:26;;;;;;;5.70;2.30;;;;;;;20.40;58.25;100768.80;107268;1257;71500;-73
2023/07/13 07:55:52;;;;;;;6.20;1.40;;;;;;;20.43;57.59;100763.67;107179;1256;62006;-71
2023/07/13 07:58:25;;;;;;;3.90;1.20;;;;;;;20.42;57.53;100768.13;107031;1262;59604;-73
2023/07/13 08:01:02;;;;;;;4.60;1.50;;;;;;;20.31;57.34;100770.91;107235;1256;74851;-74
2023/07/13 08:03:32;;;;;;;5.30;1.80;;;;;;;20.19;57.80;100771.96;107417;1256;69968;-74
2023/07/13 08:06:03;;;;;;;8.20;2.00;;;;;;;20.13;57.87;100771.58;106851;1263;72689;-75
2023/07/13 08:08:34;;;;;;;4.00;1.10;;;;;;;20.07;57.80;100774.88;107559;1257;60924;-73
2023/07/13 08:11:07;;;;;;;4.00;1.20;;;;;;;20.01;57.95;100771.73;107411;1256;62935;-74
2023/07/13 08:13:36;;;;;;;6.40;2.20;;;;;;;20.02;58.28;100777.09;106675;1257;74613;-73
2023/07/13 08:16:07;;;;;;;5.80;1.90;;;;;;;20.10;58.10;100775.37;106742;1256;61230;-72
2023/07/13 08:18:34;;;;;;;4.10;1.80;;;;;;;20.20;57.81;100778.28;106769;1261;72679;-73
2023/07/13 08:21:05;;;;;;;3.80;1.40;;;;;;;20.30;57.44;100778.89;107365;1256;62355;-75
2023/07/13 08:23:32;;;;;;;5.90;1.30;;;;;;;20.46;56.89;100775.48;107245;1256;61131;-73
2023/07/13 08:26:04;;;;;;;5.40;1.60;;;;;;;20.61;56.83;100773.77;106769;1260;72599;-72
2023/07/13 08:28:32;;;;;;;6.00;3.20;;;;;;;20.89;56.76;100774.29;107183;1257;72343;-74
2023/07/13 08:31:07;;;;;;;4.90;1.70;;;;;;;21.07;55.34;100781.69;106967;1256;74149;-75
2023/07/13 08:33:35;;;;;;;10.30;4.30;;;;;;;21.07;55.00;100781.47;106904;1260;61299;-75
2023/07/13 08:36:04;;;;;;;5.70;1.70;;;;;;;21.11;55.25;100779.23;106902;1258;61569;-74
2023/07/13 08:38:31;;;;;;;3.90;1.30;;;;;;;21.13;54.77;100781.64;106852;1257;74728;-75
2023/07/13 08:40:58;;;;;;;7.90;4.10;;;;;;;21.18;55.03;100781.61;106589;1259;70016;-72
2023/07/13 08:43:34;;;;;;;6.40;2.50;;;;;;;21.26;55.13;100786.23;106848;1257;71510;-75
2023/07/13 08:46:19;;;;;;;4.60;1.90;;;;;;;21.27;54.70;100778.36;106872;1258;61438;-75
2023/07/13 08:48:58;;;;;;;5.80;1.30;;;;;;;21.28;54.45;100786.10;106634;1256;60095;-72
2023/07/13 08:51:47;;;;;;;4.90;1.10;;;;;;;21.25;54.57;100780.27;106358;1262;74348;-74
2023/07/13 08:54:35;;;;;;;6.80;1.60;;;;;;;21.29;54.87;100776.40;107104;1256;69706;-74
2023/07/13 08:57:12;;;;;;;6.40;2.50;;;;;;;21.38;54.90;100778.92;106505;1256;71739;-75
2023/07/13 08:59:39;;;;;;;3.90;1.00;;;;;;;21.35;54.66;100784.80;106778;1261;61353;-74
2023/07/13 09:02:22;;;;;;;4.90;1.40;;;;;;;21.32;54.91;100778.73;106442;1262;61172;-73
2023/07/13 09:05:00;;;;;;;7.20;3.60;;;;;;;21.46;55.40;100779.23;106578;1261;73907;-76
2023/07/13 09:08:02;;;;;;;5.90;3.40;;;;;;;21.49;54.64;100774.60;106828;1256;72185;-72
2023/07/13 09:10:41;;;;;;;5.90;2.70;;;;;;;21.45;54.74;100776.91;107229;1257;73804;-75
2023/07/13 09:13:16;;;;;;;10.10;5.00;;;;;;;21.38;54.80;100785.69;106559;1257;61198;-75
2023/07/13 09:15:48;;;;;;;11.70;6.10;;;;;;;21.37;55.04;100785.17;106798;1260;61357;-75
2023/07/13 09:18:42;;;;;;;8.80;4.00;;;;;;;21.37;55.18;100785.48;106539;1256;74700;-73
2023/07/13 09:21:20;;;;;;;8.20;3.80;;;;;;;21.40;55.68;100795.86;107027;1258;71740;-74
2023/07/13 09:23:50;;;;;;;7.70;3.50;;;;;;;21.26;55.80;100800.42;108203;1256;72236;-73
2023/07/13 09:26:21;;;;;;;5.00;1.60;;;;;;;21.11;56.04;100798.22;108264;1257;61887;-73
2023/07/13 09:28:54;;;;;;;5.50;1.60;;;;;;;21.06;56.09;100798.23;108762;1257;59780;-73
2023/07/13 09:31:26;;;;;;;3.50;1.00;;;;;;;21.09;55.53;100796.55;107114;1257;75023;-74
2023/07/13 09:33:52;;;;;;;5.40;1.20;;;;;;;21.37;55.76;100791.86;107415;1257;70767;-74
2023/07/13 09:36:25;;;;;;;5.00;1.40;;;;;;;21.72;54.89;100796.66;107852;1259;73889;-74
2023/07/13 09:38:58;;;;;;;4.70;1.20;;;;;;;21.98;54.17;100798.55;108733;1256;61247;-76
2023/07/13 09:41:29;;;;;;;8.60;4.70;;;;;;;22.22;53.77;100787.23;107281;1257;61189;-73
2023/07/13 09:44:14;;;;;;;15.00;10.60;;;;;;;22.31;52.73;100794.11;107180;1260;73553;-74
2023/07/13 09:46:52;;;;;;;7.90;2.40;;;;;;;22.28;52.45;100790.56;106945;1261;71164;-73
2023/07/13 09:49:23;;;;;;;5.90;1.50;;;;;;;22.38;53.02;100783.35;107206;1256;71703;-74
2023/07/13 09:51:59;;;;;;;9.60;5.00;;;;;;;22.53;52.41;100785.95;106924;1256;61269;-72
2023/07/13 09:54:26;;;;;;;12.20;7.80;;;;;;;22.74;51.08;100789.98;107064;1258;61421;-75
2023/07/13 09:57:00;;;;;;;9.50;6.50;;;;;;;22.85;50.48;100788.73;107531;1256;73497;-74
2023/07/13 09:59:31;;;;;;;7.30;3.50;;;;;;;22.99;50.75;100789.23;106986;1258;71191;-74
2023/07/13 10:01:58;;;;;;;6.60;3.20;;;;;;;23.14;50.50;100785.33;106801;1259;72941;-74
2023/07/13 10:04:34;;;;;;;8.60;4.80;;;;;;;23.27;50.32;100789.06;107219;1260;61356;-75
2023/07/13 10:07:15;;;;;;;5.30;1.80;;;;;;;23.47;49.05;100787.99;107081;1258;59267;-73
2023/07/13 10:09:56;;;;;;;6.40;3.10;;;;;;;23.44;48.09;100801.94;107021;1256;74804;-74
2023/07/13 10:12:24;;;;;;;4.10;1.40;;;;;;;23.45;47.82;100792.80;107331;1257;69963;-73
2023/07/13 10:14:56;;;;;;;4.50;1.60;;;;;;;23.35;48.48;100796.60;107263;1257;71515;-71
2023/07/13 10:17:40;;;;;;;9.20;5.10;;;;;;;23.40;49.05;100796.66;107110;1258;59363;-72
2023/07/13 10:20:12;;;;;;;6.50;1.60;;;;;;;23.47;49.80;100798.05;107213;1256;61762;-74
2023/07/13 10:23:05;;;;;;;6.90;3.00;;;;;;;23.56;49.42;100792.23;107024;1257;74670;-72
2023/07/13 10:25:36;;;;;;;3.00;1.20;;;;;;;23.51;49.15;100784.33;107105;1256;71241;-75
2023/07/13 10:28:26;;;;;;;4.10;2.00;;;;;;;23.45;48.91;100787.65;106752;1257;72875;-73
2023/07/13 10:30:55;;;;;;;4.00;1.40;;;;;;;23.11;48.26;100795.52;106804;1257;61330;-74
2023/07/13 10:33:22;;;;;;;3.40;1.10;;;;;;;22.76;48.39;100796.43;107129;1256;61290;-74
2023/07/13 10:35:54;;;;;;;8.70;4.90;;;;;;;22.51;49.36;100801.24;106835;1257;73520;-72
2023/07/13 10:38:23;;;;;;;6.60;3.60;;;;;;;22.38;50.46;100798.75;107288;1258;71767;-74
2023/07/13 10:40:57;;;;;;;4.80;1.40;;;;;;;22.43;50.63;100804.59;107004;1261;71447;-74
2023/07/13 10:43:30;;;;;;;5.80;1.20;;;;;;;22.63;49.71;100800.30;106890;1257;61270;-72
2023/07/13 10:45:59;;;;;;;3.50;1.90;;;;;;;22.87;47.89;100794.60;106833;1257;61230;-72
2023/07/13 10:48:27;;;;;;;4.90;2.00;;;;;;;23.10;47.49;100786.70;107247;1260;75351;-73
2023/07/13 10:50:55;;;;;;;6.90;4.20;;;;;;;23.26;46.50;100790.63;107663;1256;69928;-74
2023/07/13 10:53:30;;;;;;;4.70;2.60;;;;;;;23.39;46.54;100797.39;106982;1258;73487;-72
2023/07/13 10:56:05;;;;;;;3.80;1.10;;;;;;;23.43;44.97;100790.30;106791;1257;61359;-76
2023/07/13 10:58:43;;;;;;;3.10;1.00;;;;;;;23.59;44.46;100792.52;107214;1257;61318;-74
2023/07/13 11:01:15;;;;;;;4.00;1.50;;;;;;;23.75;44.39;100793.95;106949;1257;75237;-73
2023/07/13 11:04:02;;;;;;;6.40;3.10;;;;;;;23.91;43.80;100785.61;106905;1258;69967;-77
2023/07/13 11:06:41;;;;;;;4.20;1.30;;;;;;;24.10;43.25;100785.99;107159;1258;71472;-72
2023/07/13 11:09:32;;;;;;;3.50;1.20;;;;;;;24.24;43.94;100787.42;107040;1257;61133;-73
2023/07/13 11:12:00;;;;;;;6.10;3.80;;;;;;;24.39;43.41;100790.42;107047;1256;60794;-74
2023/07/13 11:14:29;;;;;;;5.60;3.20;;;;;;;24.48;42.54;100794.30;107076;1256;74731;-76
2023/07/13 11:16:57;;;;;;;3.20;1.40;;;;;;;24.30;41.99;100799.27;106696;1258;70013;-75
2023/07/13 11:19:27;;;;;;;4.00;1.30;;;;;;;24.24;42.21;100794.41;107077;1257;72532;-75
2023/07/13 11:22:24;;;;;;;2.50;1.10;;;;;;;24.36;42.77;100793.70;107148;1257;61144;-75
2023/07/13 11:24:58;;;;;;;3.60;1.10;;;;;;;24.54;41.98;100791.80;107063;1260;61981;-76
2023/07/13 11:27:28;;;;;;;4.70;1.60;;;;;;;24.68;41.53;100793.48;107465;1257;74738;-74
2023/07/13 11:30:27;;;;;;;3.10;1.20;;;;;;;24.70;42.00;100791.96;107036;1257;71262;-72